Terminal Aerodrome Forecast
Issued by NWS Knoxville/Tri Cities, TN

Home | Current Version | Previous Version | Text Only | Print | Product List | Glossary On
Versions: 1 2 3 4 5 6 7 8 9 10 11 12 13 14 15 16 17 18 19 20 21 22 23 24 25 26 27 28 29 30 31 32 33
905
FTUS44 KMRX 252322
TAFTRI
TAF
KTRI 252322Z 2600/2624 21005KT P6SM SCT025 BKN050
     FM260500 00000KT 5SM BR SCT010
     FM260800 00000KT 2SM BR OVC008
     FM261300 00000KT 5SM BR FEW010 BKN018
     FM261600 18003KT P6SM SCT020=

USA.gov is the U.S. government's official web portal to all federal, state and local government web resources and services.